sensor_id;sensor_type;location;lat;lon;timestamp;temperature;humidity
26186;DHT22;20067;48.764;9.176;2023-04-01T00:00:22;9.70;91.30
26186;DHT22;20067;48.764;9.176;2023-04-01T00:02:48;9.70;91.30
26186;DHT22;20067;48.764;9.176;2023-04-01T00:05:14;9.70;91.30
26186;DHT22;20067;48.764;9.176;2023-04-01T00:07:40;9.80;91.30
26186;DHT22;20067;48.764;9.176;2023-04-01T00:10:07;9.90;91.30
26186;DHT22;20067;48.764;9.176;2023-04-01T00:12:34;9.80;91.30
26186;DHT22;20067;48.764;9.176;2023-04-01T00:15:04;9.90;91.30
26186;DHT22;20067;48.764;9.176;2023-04-01T00:17:30;9.90;91.30
26186;DHT22;20067;48.764;9.176;2023-04-01T00:19:57;9.90;91.30
26186;DHT22;20067;48.764;9.176;2023-04-01T00:22:23;9.90;91.30
26186;DHT22;20067;48.764;9.176;2023-04-01T00:24:50;10.00;91.30
26186;DHT22;20067;48.764;9.176;2023-04-01T00:27:15;9.90;91.30
26186;DHT22;20067;48.764;9.176;2023-04-01T00:29:42;9.90;91.30
26186;DHT22;20067;48.764;9.176;2023-04-01T00:32:08;9.90;91.30
26186;DHT22;20067;48.764;9.176;2023-04-01T00:34:34;9.90;91.30
26186;DHT22;20067;48.764;9.176;2023-04-01T00:37:00;10.00;91.30
26186;DHT22;20067;48.764;9.176;2023-04-01T00:39:29;9.90;91.30
26186;DHT22;20067;48.764;9.176;2023-04-01T00:41:54;9.90;91.30
26186;DHT22;20067;48.764;9.176;2023-04-01T00:44:24;9.80;91.30
26186;DHT22;20067;48.764;9.176;2023-04-01T00:46:50;9.80;91.30
26186;DHT22;20067;48.764;9.176;2023-04-01T00:49:20;9.90;91.30
26186;DHT22;20067;48.764;9.176;2023-04-01T00:51:51;9.90;91.30
26186;DHT22;20067;48.764;9.176;2023-04-01T00:54:19;9.90;91.30
26186;DHT22;20067;48.764;9.176;2023-04-01T00:56:59;9.80;91.30
26186;DHT22;20067;48.764;9.176;2023-04-01T00:59:29;9.90;91.30
26186;DHT22;20067;48.764;9.176;2023-04-01T01:01:55;9.90;91.30
26186;DHT22;20067;48.764;9.176;2023-04-01T01:04:33;9.90;91.30
26186;DHT22;20067;48.764;9.176;2023-04-01T01:08:00;9.90;91.30
26186;DHT22;20067;48.764;9.176;2023-04-01T01:10:24;9.70;91.30
26186;DHT22;20067;48.764;9.176;2023-04-01T01:15:44;9.70;91.30
26186;DHT22;20067;48.764;9.176;2023-04-01T01:24:28;9.60;91.30
26186;DHT22;20067;48.764;9.176;2023-04-01T01:27:19;9.70;91.30
26186;DHT22;20067;48.764;9.176;2023-04-01T01:33:15;9.60;91.30
26186;DHT22;20067;48.764;9.176;2023-04-01T01:35:45;9.70;91.30
26186;DHT22;20067;48.764;9.176;2023-04-01T01:38:18;9.60;91.30
26186;DHT22;20067;48.764;9.176;2023-04-01T01:40:47;9.60;91.30
26186;DHT22;20067;48.764;9.176;2023-04-01T01:43:16;9.70;91.30
26186;DHT22;20067;48.764;9.176;2023-04-01T01:45:48;9.60;91.30
26186;DHT22;20067;48.764;9.176;2023-04-01T01:48:17;9.60;91.30
26186;DHT22;20067;48.764;9.176;2023-04-01T01:50:46;9.60;91.30
26186;DHT22;20067;48.764;9.176;2023-04-01T01:53:13;9.60;91.30
26186;DHT22;20067;48.764;9.176;2023-04-01T01:55:44;9.60;91.30
26186;DHT22;20067;48.764;9.176;2023-04-01T02:00:53;9.60;91.30
26186;DHT22;20067;48.764;9.176;2023-04-01T02:03:21;9.60;91.30
26186;DHT22;20067;48.764;9.176;2023-04-01T02:05:50;9.60;91.30
26186;DHT22;20067;48.764;9.176;2023-04-01T02:08:22;9.60;91.30
26186;DHT22;20067;48.764;9.176;2023-04-01T02:10:56;9.50;91.30
26186;DHT22;20067;48.764;9.176;2023-04-01T02:16:23;9.50;91.30
26186;DHT22;20067;48.764;9.176;2023-04-01T02:18:52;9.50;91.30
26186;DHT22;20067;48.764;9.176;2023-04-01T02:21:20;9.50;91.30
26186;DHT22;20067;48.764;9.176;2023-04-01T02:23:47;9.50;91.30
26186;DHT22;20067;48.764;9.176;2023-04-01T02:26:15;9.50;91.30
26186;DHT22;20067;48.764;9.176;2023-04-01T02:28:43;9.60;91.30
26186;DHT22;20067;48.764;9.176;2023-04-01T02:31:14;9.60;91.30
26186;DHT22;20067;48.764;9.176;2023-04-01T02:33:40;9.60;91.30
26186;DHT22;20067;48.764;9.176;2023-04-01T02:36:11;9.60;91.30
26186;DHT22;20067;48.764;9.176;2023-04-01T02:38:38;9.50;91.30
26186;DHT22;20067;48.764;9.176;2023-04-01T02:41:04;9.40;91.30
26186;DHT22;20067;48.764;9.176;2023-04-01T02:43:31;9.50;91.30
26186;DHT22;20067;48.764;9.176;2023-04-01T02:45:57;9.50;91.30
26186;DHT22;20067;48.764;9.176;2023-04-01T02:48:22;9.40;91.30
26186;DHT22;20067;48.764;9.176;2023-04-01T02:50:48;9.50;91.30
26186;DHT22;20067;48.764;9.176;2023-04-01T02:53:14;9.40;91.30
26186;DHT22;20067;48.764;9.176;2023-04-01T02:55:39;9.40;91.30
26186;DHT22;20067;48.764;9.176;2023-04-01T02:58:05;9.50;91.30
26186;DHT22;20067;48.764;9.176;2023-04-01T03:00:33;9.50;91.30
26186;DHT22;20067;48.764;9.176;2023-04-01T03:03:08;9.40;91.30
26186;DHT22;20067;48.764;9.176;2023-04-01T03:05:34;9.30;91.30
26186;DHT22;20067;48.764;9.176;2023-04-01T03:08:00;9.30;91.30
26186;DHT22;20067;48.764;9.176;2023-04-01T03:10:28;9.30;91.30
26186;DHT22;20067;48.764;9.176;2023-04-01T03:12:54;9.20;91.30
26186;DHT22;20067;48.764;9.176;2023-04-01T03:15:20;9.20;91.30
26186;DHT22;20067;48.764;9.176;2023-04-01T03:17:46;9.30;91.30
26186;DHT22;20067;48.764;9.176;2023-04-01T03:20:12;9.30;91.30
26186;DHT22;20067;48.764;9.176;2023-04-01T03:22:38;9.30;91.30
26186;DHT22;20067;48.764;9.176;2023-04-01T03:25:07;9.20;91.30
26186;DHT22;20067;48.764;9.176;2023-04-01T03:27:34;9.20;91.30
26186;DHT22;20067;48.764;9.176;2023-04-01T03:30:01;9.20;91.30
26186;DHT22;20067;48.764;9.176;2023-04-01T03:32:27;9.30;91.30
26186;DHT22;20067;48.764;9.176;2023-04-01T03:34:53;9.30;91.30
26186;DHT22;20067;48.764;9.176;2023-04-01T03:37:23;9.20;91.30
26186;DHT22;20067;48.764;9.176;2023-04-01T03:39:48;9.20;91.30
26186;DHT22;20067;48.764;9.176;2023-04-01T03:42:14;9.10;91.30
26186;DHT22;20067;48.764;9.176;2023-04-01T03:44:40;9.20;91.30
26186;DHT22;20067;48.764;9.176;2023-04-01T03:47:06;9.20;91.30
26186;DHT22;20067;48.764;9.176;2023-04-01T03:49:32;9.30;91.30
26186;DHT22;20067;48.764;9.176;2023-04-01T03:51:58;9.30;91.30
26186;DHT22;20067;48.764;9.176;2023-04-01T03:54:24;9.30;91.30
26186;DHT22;20067;48.764;9.176;2023-04-01T03:56:49;9.30;91.30
26186;DHT22;20067;48.764;9.176;2023-04-01T03:59:15;9.30;91.30
26186;DHT22;20067;48.764;9.176;2023-04-01T04:01:41;9.20;91.30
26186;DHT22;20067;48.764;9.176;2023-04-01T04:04:06;9.20;91.30
26186;DHT22;20067;48.764;9.176;2023-04-01T04:06:33;9.10;91.30
26186;DHT22;20067;48.764;9.176;2023-04-01T04:08:59;9.10;91.30
26186;DHT22;20067;48.764;9.176;2023-04-01T04:11:24;9.10;91.30
26186;DHT22;20067;48.764;9.176;2023-04-01T04:13:51;9.10;91.30
26186;DHT22;20067;48.764;9.176;2023-04-01T04:16:18;9.00;91.30
26186;DHT22;20067;48.764;9.176;2023-04-01T04:18:43;9.00;91.30
26186;DHT22;20067;48.764;9.176;2023-04-01T04:21:13;9.00;91.30
26186;DHT22;20067;48.764;9.176;2023-04-01T04:23:42;9.00;91.30
26186;DHT22;20067;48.764;9.176;2023-04-01T04:26:11;8.90;91.30
26186;DHT22;20067;48.764;9.176;2023-04-01T04:28:37;8.90;91.30
26186;DHT22;20067;48.764;9.176;2023-04-01T04:31:03;8.90;91.30
26186;DHT22;20067;48.764;9.176;2023-04-01T04:33:33;8.80;91.30
26186;DHT22;20067;48.764;9.176;2023-04-01T04:36:00;8.80;91.30
26186;DHT22;20067;48.764;9.176;2023-04-01T04:38:26;8.70;91.30
26186;DHT22;20067;48.764;9.176;2023-04-01T04:40:52;8.70;91.30
26186;DHT22;20067;48.764;9.176;2023-04-01T04:43:18;8.80;91.30
26186;DHT22;20067;48.764;9.176;2023-04-01T04:45:45;8.80;91.30
26186;DHT22;20067;48.764;9.176;2023-04-01T04:48:12;8.80;91.30
26186;DHT22;20067;48.764;9.176;2023-04-01T04:50:41;8.80;91.30
26186;DHT22;20067;48.764;9.176;2023-04-01T04:53:12;8.70;91.30
26186;DHT22;20067;48.764;9.176;2023-04-01T04:55:42;8.80;91.30
26186;DHT22;20067;48.764;9.176;2023-04-01T04:58:08;8.80;91.30
26186;DHT22;20067;48.764;9.176;2023-04-01T05:00:33;8.70;91.30
26186;DHT22;20067;48.764;9.176;2023-04-01T05:02:59;8.70;91.30
26186;DHT22;20067;48.764;9.176;2023-04-01T05:05:24;8.70;91.30
26186;DHT22;20067;48.764;9.176;2023-04-01T05:07:50;8.70;91.30
26186;DHT22;20067;48.764;9.176;2023-04-01T05:10:16;8.70;91.30
26186;DHT22;20067;48.764;9.176;2023-04-01T05:12:41;8.70;91.30
26186;DHT22;20067;48.764;9.176;2023-04-01T05:15:08;8.70;91.30
26186;DHT22;20067;48.764;9.176;2023-04-01T05:17:34;8.70;91.30
26186;DHT22;20067;48.764;9.176;2023-04-01T05:19:59;8.80;91.30
26186;DHT22;20067;48.764;9.176;2023-04-01T05:22:25;8.80;91.30
26186;DHT22;20067;48.764;9.176;2023-04-01T05:24:51;8.80;91.30
26186;DHT22;20067;48.764;9.176;2023-04-01T05:27:17;8.90;91.30
26186;DHT22;20067;48.764;9.176;2023-04-01T05:29:42;8.90;91.30
26186;DHT22;20067;48.764;9.176;2023-04-01T05:32:08;9.00;91.30
26186;DHT22;20067;48.764;9.176;2023-04-01T05:34:33;9.00;91.30
26186;DHT22;20067;48.764;9.176;2023-04-01T05:36:59;9.00;91.30
26186;DHT22;20067;48.764;9.176;2023-04-01T05:39:25;9.00;91.30
26186;DHT22;20067;48.764;9.176;2023-04-01T05:41:50;9.10;91.30
26186;DHT22;20067;48.764;9.176;2023-04-01T05:44:16;9.20;91.30
26186;DHT22;20067;48.764;9.176;2023-04-01T05:46:42;9.20;91.30
26186;DHT22;20067;48.764;9.176;2023-04-01T05:49:07;9.20;91.30
26186;DHT22;20067;48.764;9.176;2023-04-01T05:51:33;9.20;91.30
26186;DHT22;20067;48.764;9.176;2023-04-01T05:53:58;9.20;91.30
26186;DHT22;20067;48.764;9.176;2023-04-01T05:56:24;9.30;91.30
26186;DHT22;20067;48.764;9.176;2023-04-01T05:58:54;9.20;91.30
26186;DHT22;20067;48.764;9.176;2023-04-01T06:01:19;9.30;91.30
26186;DHT22;20067;48.764;9.176;2023-04-01T06:03:45;9.40;91.30
26186;DHT22;20067;48.764;9.176;2023-04-01T06:06:20;9.40;91.30
26186;DHT22;20067;48.764;9.176;2023-04-01T06:08:55;9.40;91.30
26186;DHT22;20067;48.764;9.176;2023-04-01T06:33:30;10.00;90.70
26186;DHT22;20067;48.764;9.176;2023-04-01T06:56:10;10.10;90.10
26186;DHT22;20067;48.764;9.176;2023-04-01T06:58:44;10.00;90.70
26186;DHT22;20067;48.764;9.176;2023-04-01T07:01:26;9.90;90.90
26186;DHT22;20067;48.764;9.176;2023-04-01T07:03:55;10.10;91.00
26186;DHT22;20067;48.764;9.176;2023-04-01T07:08:54;10.20;90.30
26186;DHT22;20067;48.764;9.176;2023-04-01T07:11:31;10.40;90.00
26186;DHT22;20067;48.764;9.176;2023-04-01T07:14:22;10.20;90.40
26186;DHT22;20067;48.764;9.176;2023-04-01T07:17:04;10.20;90.30
26186;DHT22;20067;48.764;9.176;2023-04-01T07:19:56;10.20;90.70
26186;DHT22;20067;48.764;9.176;2023-04-01T07:25:22;10.30;90.80
26186;DHT22;20067;48.764;9.176;2023-04-01T07:28:00;10.40;91.20
26186;DHT22;20067;48.764;9.176;2023-04-01T07:30:30;10.40;90.80
26186;DHT22;20067;48.764;9.176;2023-04-01T07:36:16;10.30;90.80
26186;DHT22;20067;48.764;9.176;2023-04-01T07:39:10;10.30;91.00
26186;DHT22;20067;48.764;9.176;2023-04-01T07:41:41;10.20;91.30
26186;DHT22;20067;48.764;9.176;2023-04-01T07:46:50;10.20;91.00
26186;DHT22;20067;48.764;9.176;2023-04-01T07:49:32;10.20;90.90
26186;DHT22;20067;48.764;9.176;2023-04-01T07:54:54;10.30;91.30
26186;DHT22;20067;48.764;9.176;2023-04-01T07:57:34;10.50;90.70
26186;DHT22;20067;48.764;9.176;2023-04-01T08:05:25;10.50;90.60
26186;DHT22;20067;48.764;9.176;2023-04-01T08:16:38;10.50;90.50
26186;DHT22;20067;48.764;9.176;2023-04-01T08:19:48;10.50;90.60
26186;DHT22;20067;48.764;9.176;2023-04-01T08:22:27;10.60;90.90
26186;DHT22;20067;48.764;9.176;2023-04-01T08:24:56;10.60;90.40
26186;DHT22;20067;48.764;9.176;2023-04-01T08:35:41;10.50;91.30
26186;DHT22;20067;48.764;9.176;2023-04-01T08:38:22;10.60;91.30
26186;DHT22;20067;48.764;9.176;2023-04-01T08:41:00;10.60;91.30
26186;DHT22;20067;48.764;9.176;2023-04-01T08:43:45;10.50;91.30
26186;DHT22;20067;48.764;9.176;2023-04-01T08:46:39;10.50;91.30
26186;DHT22;20067;48.764;9.176;2023-04-01T08:52:37;10.20;91.30
26186;DHT22;20067;48.764;9.176;2023-04-01T08:55:40;10.20;91.30
26186;DHT22;20067;48.764;9.176;2023-04-01T09:23:15;10.30;91.30
26186;DHT22;20067;48.764;9.176;2023-04-01T10:02:24;10.50;91.00
26186;DHT22;20067;48.764;9.176;2023-04-01T10:05:21;10.60;91.30
26186;DHT22;20067;48.764;9.176;2023-04-01T10:10:41;10.60;90.70
26186;DHT22;20067;48.764;9.176;2023-04-01T10:16:24;10.70;89.50
26186;DHT22;20067;48.764;9.176;2023-04-01T10:32:55;11.20;87.40
26186;DHT22;20067;48.764;9.176;2023-04-01T10:44:09;11.50;86.00
26186;DHT22;20067;48.764;9.176;2023-04-01T11:01:04;11.80;84.50
26186;DHT22;20067;48.764;9.176;2023-04-01T11:30:20;12.20;82.90
26186;DHT22;20067;48.764;9.176;2023-04-01T11:40:59;12.50;81.90
26186;DHT22;20067;48.764;9.176;2023-04-01T11:49:58;12.20;82.20
26186;DHT22;20067;48.764;9.176;2023-04-01T12:03:27;12.10;83.40
26186;DHT22;20067;48.764;9.176;2023-04-01T12:06:20;11.70;84.10
26186;DHT22;20067;48.764;9.176;2023-04-01T12:17:49;11.70;84.90
26186;DHT22;20067;48.764;9.176;2023-04-01T12:26:53;11.70;85.10
26186;DHT22;20067;48.764;9.176;2023-04-01T12:29:44;11.70;86.10
26186;DHT22;20067;48.764;9.176;2023-04-01T12:41:40;11.80;85.50
26186;DHT22;20067;48.764;9.176;2023-04-01T12:49:53;12.10;83.50
26186;DHT22;20067;48.764;9.176;2023-04-01T12:52:31;12.40;83.00
26186;DHT22;20067;48.764;9.176;2023-04-01T12:55:32;12.50;82.00
26186;DHT22;20067;48.764;9.176;2023-04-01T13:06:57;12.50;81.80
26186;DHT22;20067;48.764;9.176;2023-04-01T13:12:36;12.60;81.60
26186;DHT22;20067;48.764;9.176;2023-04-01T13:25:35;12.50;81.30
26186;DHT22;20067;48.764;9.176;2023-04-01T13:28:24;12.40;82.10
26186;DHT22;20067;48.764;9.176;2023-04-01T13:31:29;12.50;81.50
26186;DHT22;20067;48.764;9.176;2023-04-01T13:56:23;12.40;82.00
26186;DHT22;20067;48.764;9.176;2023-04-01T14:10:28;12.60;81.60
26186;DHT22;20067;48.764;9.176;2023-04-01T14:32:16;12.20;83.00
26186;DHT22;20067;48.764;9.176;2023-04-01T14:37:54;12.20;83.60
26186;DHT22;20067;48.764;9.176;2023-04-01T14:40:33;12.10;82.90
26186;DHT22;20067;48.764;9.176;2023-04-01T14:51:13;12.10;84.90
26186;DHT22;20067;48.764;9.176;2023-04-01T14:53:51;12.20;84.70
26186;DHT22;20067;48.764;9.176;2023-04-01T14:56:44;12.30;84.00
26186;DHT22;20067;48.764;9.176;2023-04-01T15:02:14;12.20;82.90
26186;DHT22;20067;48.764;9.176;2023-04-01T15:07:46;12.20;83.30
26186;DHT22;20067;48.764;9.176;2023-04-01T15:10:40;12.30;82.50
26186;DHT22;20067;48.764;9.176;2023-04-01T15:25:05;12.40;82.50
26186;DHT22;20067;48.764;9.176;2023-04-01T15:28:04;12.50;82.50
26186;DHT22;20067;48.764;9.176;2023-04-01T15:33:39;12.30;82.50
26186;DHT22;20067;48.764;9.176;2023-04-01T15:38:58;12.00;83.40
26186;DHT22;20067;48.764;9.176;2023-04-01T15:47:31;12.20;83.90
26186;DHT22;20067;48.764;9.176;2023-04-01T15:55:53;12.00;84.10
26186;DHT22;20067;48.764;9.176;2023-04-01T16:19:53;11.90;84.10
26186;DHT22;20067;48.764;9.176;2023-04-01T16:22:40;11.80;84.30
26186;DHT22;20067;48.764;9.176;2023-04-01T16:38:52;11.80;84.70
26186;DHT22;20067;48.764;9.176;2023-04-01T16:41:24;11.80;84.70
26186;DHT22;20067;48.764;9.176;2023-04-01T16:43:55;11.90;84.80
26186;DHT22;20067;48.764;9.176;2023-04-01T16:51:48;11.80;85.30
26186;DHT22;20067;48.764;9.176;2023-04-01T16:56:53;11.90;85.30
26186;DHT22;20067;48.764;9.176;2023-04-01T17:00:14;11.90;85.30
26186;DHT22;20067;48.764;9.176;2023-04-01T17:04:49;12.00;85.30
26186;DHT22;20067;48.764;9.176;2023-04-01T17:07:27;12.00;85.20
26186;DHT22;20067;48.764;9.176;2023-04-01T17:16:04;12.00;85.10
26186;DHT22;20067;48.764;9.176;2023-04-01T17:18:50;12.00;85.00
26186;DHT22;20067;48.764;9.176;2023-04-01T17:30:16;11.80;85.40
26186;DHT22;20067;48.764;9.176;2023-04-01T17:33:10;12.00;85.30
26186;DHT22;20067;48.764;9.176;2023-04-01T17:41:04;11.80;85.50
26186;DHT22;20067;48.764;9.176;2023-04-01T17:43:52;11.80;85.80
26186;DHT22;20067;48.764;9.176;2023-04-01T17:46:47;11.80;86.10
26186;DHT22;20067;48.764;9.176;2023-04-01T17:49:28;11.80;85.80
26186;DHT22;20067;48.764;9.176;2023-04-01T17:54:38;11.80;86.10
26186;DHT22;20067;48.764;9.176;2023-04-01T17:57:48;11.80;86.40
26186;DHT22;20067;48.764;9.176;2023-04-01T18:11:39;12.00;86.20
26186;DHT22;20067;48.764;9.176;2023-04-01T18:19:55;12.10;87.70
26186;DHT22;20067;48.764;9.176;2023-04-01T18:22:33;12.10;88.00
26186;DHT22;20067;48.764;9.176;2023-04-01T18:27:44;11.70;89.70
26186;DHT22;20067;48.764;9.176;2023-04-01T18:30:22;11.60;90.40
26186;DHT22;20067;48.764;9.176;2023-04-01T18:36:09;11.30;91.30
26186;DHT22;20067;48.764;9.176;2023-04-01T18:38:57;11.10;91.30
26186;DHT22;20067;48.764;9.176;2023-04-01T18:42:43;11.00;91.20
26186;DHT22;20067;48.764;9.176;2023-04-01T18:45:14;10.90;90.20
26186;DHT22;20067;48.764;9.176;2023-04-01T18:53:29;10.70;88.70
26186;DHT22;20067;48.764;9.176;2023-04-01T18:56:13;10.80;89.00
26186;DHT22;20067;48.764;9.176;2023-04-01T18:59:00;10.80;88.40
26186;DHT22;20067;48.764;9.176;2023-04-01T19:04:30;10.60;88.70
26186;DHT22;20067;48.764;9.176;2023-04-01T19:07:00;10.70;88.50
26186;DHT22;20067;48.764;9.176;2023-04-01T19:09:43;10.60;87.80
26186;DHT22;20067;48.764;9.176;2023-04-01T19:19:50;10.30;89.10
26186;DHT22;20067;48.764;9.176;2023-04-01T19:28:49;10.60;88.70
26186;DHT22;20067;48.764;9.176;2023-04-01T19:31:39;10.60;88.40
26186;DHT22;20067;48.764;9.176;2023-04-01T19:34:31;10.50;89.00
26186;DHT22;20067;48.764;9.176;2023-04-01T19:37:35;10.40;89.00
26186;DHT22;20067;48.764;9.176;2023-04-01T19:51:48;10.20;90.30
26186;DHT22;20067;48.764;9.176;2023-04-01T19:57:00;10.30;90.20
26186;DHT22;20067;48.764;9.176;2023-04-01T19:59:37;10.30;90.30
26186;DHT22;20067;48.764;9.176;2023-04-01T20:07:10;10.30;90.10
26186;DHT22;20067;48.764;9.176;2023-04-01T20:10:09;10.40;90.00
26186;DHT22;20067;48.764;9.176;2023-04-01T20:12:43;10.30;90.10
26186;DHT22;20067;48.764;9.176;2023-04-01T20:15:28;10.30;90.20
26186;DHT22;20067;48.764;9.176;2023-04-01T20:18:00;10.10;91.00
26186;DHT22;20067;48.764;9.176;2023-04-01T20:20:29;10.10;91.10
26186;DHT22;20067;48.764;9.176;2023-04-01T20:23:06;10.20;90.90
26186;DHT22;20067;48.764;9.176;2023-04-01T20:28:21;10.10;91.10
26186;DHT22;20067;48.764;9.176;2023-04-01T20:50:56;10.20;91.10
26186;DHT22;20067;48.764;9.176;2023-04-01T21:07:41;10.50;90.40
26186;DHT22;20067;48.764;9.176;2023-04-01T21:13:01;10.40;90.80
26186;DHT22;20067;48.764;9.176;2023-04-01T21:18:58;10.10;91.30
26186;DHT22;20067;48.764;9.176;2023-04-01T21:21:53;10.00;91.30
26186;DHT22;20067;48.764;9.176;2023-04-01T21:30:47;9.90;91.30
26186;DHT22;20067;48.764;9.176;2023-04-01T21:36:08;9.90;91.30
26186;DHT22;20067;48.764;9.176;2023-04-01T21:53:05;10.40;91.30
26186;DHT22;20067;48.764;9.176;2023-04-01T22:01:12;10.20;90.80
26186;DHT22;20067;48.764;9.176;2023-04-01T22:06:42;10.10;90.70
26186;DHT22;20067;48.764;9.176;2023-04-01T22:12:55;10.20;90.00
26186;DHT22;20067;48.764;9.176;2023-04-01T22:15:05;10.10;90.10
26186;DHT22;20067;48.764;9.176;2023-04-01T22:17:42;10.20;89.90
26186;DHT22;20067;48.764;9.176;2023-04-01T22:26:02;10.20;89.20
26186;DHT22;20067;48.764;9.176;2023-04-01T22:28:38;10.10;89.50
26186;DHT22;20067;48.764;9.176;2023-04-01T22:31:08;10.10;89.60
26186;DHT22;20067;48.764;9.176;2023-04-01T22:34:04;10.10;89.50
26186;DHT22;20067;48.764;9.176;2023-04-01T22:36:46;10.10;89.40
26186;DHT22;20067;48.764;9.176;2023-04-01T22:39:41;10.10;89.50
26186;DHT22;20067;48.764;9.176;2023-04-01T22:50:30;10.10;90.00
26186;DHT22;20067;48.764;9.176;2023-04-01T22:55:53;10.00;90.40
26186;DHT22;20067;48.764;9.176;2023-04-01T22:58:31;10.00;90.40
26186;DHT22;20067;48.764;9.176;2023-04-01T23:01:01;10.10;90.30
26186;DHT22;20067;48.764;9.176;2023-04-01T23:03:31;10.20;89.70
26186;DHT22;20067;48.764;9.176;2023-04-01T23:05:59;10.20;89.40
26186;DHT22;20067;48.764;9.176;2023-04-01T23:11:23;10.00;90.10
26186;DHT22;20067;48.764;9.176;2023-04-01T23:17:09;10.00;90.30
26186;DHT22;20067;48.764;9.176;2023-04-01T23:22:32;9.90;90.50
26186;DHT22;20067;48.764;9.176;2023-04-01T23:25:32;10.00;90.40
26186;DHT22;20067;48.764;9.176;2023-04-01T23:33:30;9.80;90.90
26186;DHT22;20067;48.764;9.176;2023-04-01T23:35:57;9.90;90.80
26186;DHT22;20067;48.764;9.176;2023-04-01T23:38:35;9.90;90.80
26186;DHT22;20067;48.764;9.176;2023-04-01T23:41:06;9.90;90.70
26186;DHT22;20067;48.764;9.176;2023-04-01T23:43:36;9.90;90.60
26186;DHT22;20067;48.764;9.176;2023-04-01T23:46:03;9.90;90.50
26186;DHT22;20067;48.764;9.176;2023-04-01T23:48:44;9.80;91.20
26186;DHT22;20067;48.764;9.176;2023-04-01T23:51:18;9.70;91.30
26186;DHT22;20067;48.764;9.176;2023-04-01T23:53:46;9.60;91.30
26186;DHT22;20067;48.764;9.176;2023-04-01T23:56:16;9.50;91.30
26186;DHT22;20067;48.764;9.176;2023-04-01T23:58:44;9.60;91.30
